Time;durP1;ratioP1;P1;durP2;ratioP2;P2;SDS_P1;SDS_P2;PMS_P1;PMS_P2;Temp;Humidity;BMP_temperature;BMP_pressure;BME280_temperature;BME280_humidity;BME280_pressure;Samples;Min_cycle;Max_cycle;Signal;HPM_P1;HPM_P2
2022/11/14 00:00:42;;;;;;;0.93;0.68;;;1.50;98.10;;;;;;5013071;28;20022;-82
2022/11/14 00:03:08;;;;;;;1.63;0.90;;;1.50;98.30;;;;;;5011940;28;20026;-82
2022/11/14 00:05:40;;;;;;;0.57;0.50;;;1.50;98.40;;;;;;5013618;28;20034;-82
2022/11/14 00:08:06;;;;;;;1.77;1.08;;;1.60;98.50;;;;;;4995549;28;20033;-82
2022/11/14 00:10:32;;;;;;;6.07;1.15;;;1.60;98.50;;;;;;5012790;28;20518;-83
2022/11/14 00:12:58;;;;;;;1.55;0.85;;;1.70;98.60;;;;;;5012077;28;20383;-83
2022/11/14 00:15:24;;;;;;;2.00;0.90;;;1.70;98.60;;;;;;5012529;28;20105;-82
2022/11/14 00:17:50;;;;;;;1.27;0.88;;;1.70;98.50;;;;;;5012404;28;20021;-82
2022/11/14 00:20:16;;;;;;;2.03;0.70;;;1.70;98.30;;;;;;5012329;28;20501;-82
2022/11/14 00:22:42;;;;;;;0.98;0.73;;;1.70;98.30;;;;;;5014299;28;20044;-83
2022/11/14 00:25:09;;;;;;;1.35;0.80;;;1.80;98.30;;;;;;5025829;28;20049;-80
2022/11/14 00:27:35;;;;;;;;;;;1.80;98.30;;;;;;5024883;28;20080;-80
2022/11/14 00:30:01;;;;;;;1.45;0.80;;;1.80;98.20;;;;;;5009385;28;19905;-80
2022/11/14 00:32:26;;;;;;;1.48;0.95;;;1.80;98.20;;;;;;5012896;28;20088;-83
2022/11/14 00:34:52;;;;;;;2.95;1.02;;;1.90;98.30;;;;;;4995040;28;20037;-82
2022/11/14 00:37:18;;;;;;;1.40;0.70;;;1.90;98.20;;;;;;5011390;28;20032;-82
2022/11/14 00:39:44;;;;;;;1.08;0.75;;;1.90;98.10;;;;;;5012416;28;20022;-84
2022/11/14 00:42:10;;;;;;;1.77;0.80;;;1.90;98.00;;;;;;5014051;28;20057;-83
2022/11/14 00:44:35;;;;;;;4.68;1.42;;;2.00;97.90;;;;;;5014845;28;20085;-83
2022/11/14 00:47:01;;;;;;;1.35;0.90;;;2.00;97.70;;;;;;5021601;28;20204;-83
2022/11/14 00:49:27;;;;;;;1.52;0.90;;;2.10;97.60;;;;;;5023486;28;20018;-84
2022/11/14 00:51:53;;;;;;;1.42;0.88;;;2.20;97.30;;;;;;5025675;28;20037;-86
2022/11/14 00:54:18;;;;;;;3.58;0.85;;;2.20;97.10;;;;;;5016704;28;20076;-84
2022/11/14 00:56:44;;;;;;;1.02;0.52;;;2.20;96.80;;;;;;5017014;28;20053;-83
2022/11/14 00:59:10;;;;;;;0.88;0.50;;;2.20;96.10;;;;;;5016233;28;20049;-83
2022/11/14 01:01:36;;;;;;;0.40;0.40;;;2.20;95.10;;;;;;5015116;28;20025;-81
2022/11/14 01:04:02;;;;;;;1.02;0.75;;;2.10;95.00;;;;;;5015846;28;20121;-85
2022/11/14 01:06:28;;;;;;;1.25;0.98;;;2.10;94.90;;;;;;5015787;28;20026;-82
2022/11/14 01:08:53;;;;;;;0.75;0.38;;;2.10;94.50;;;;;;5015712;28;20026;-83
2022/11/14 01:11:20;;;;;;;0.60;0.40;;;2.10;93.70;;;;;;5015414;28;20376;-83
2022/11/14 01:13:46;;;;;;;0.65;0.52;;;2.10;93.90;;;;;;5015705;28;20045;-82
2022/11/14 01:16:12;;;;;;;0.30;0.30;;;2.10;93.30;;;;;;5016271;28;20030;-83
2022/11/14 01:18:39;;;;;;;0.45;0.40;;;2.00;92.80;;;;;;5015498;28;20032;-81
2022/11/14 01:21:10;;;;;;;1.15;1.05;;;2.00;92.70;;;;;;5016091;28;20028;-81
2022/11/14 01:23:36;;;;;;;0.30;0.30;;;2.00;92.80;;;;;;5016092;28;20044;-83
2022/11/14 01:26:08;;;;;;;0.40;0.40;;;2.00;92.90;;;;;;5016022;28;20026;-83
2022/11/14 01:28:34;;;;;;;0.40;0.40;;;2.10;92.80;;;;;;5014504;28;20025;-82
2022/11/14 01:31:08;;;;;;;1.23;0.30;;;2.00;92.60;;;;;;5021204;28;20060;-81
2022/11/14 01:33:34;;;;;;;0.40;0.30;;;2.00;91.90;;;;;;5018016;28;20018;-81
2022/11/14 01:35:59;;;;;;;0.40;0.40;;;2.00;92.00;;;;;;5014728;28;20045;-82
2022/11/14 01:38:25;;;;;;;0.45;0.38;;;1.90;91.50;;;;;;5001378;28;20057;-82
2022/11/14 01:40:51;;;;;;;0.47;0.45;;;1.90;91.50;;;;;;5012429;28;20026;-81
2022/11/14 01:43:25;;;;;;;0.40;0.40;;;1.90;91.70;;;;;;5014910;28;20104;-82
2022/11/14 01:46:16;;;;;;;2.00;0.55;;;1.90;91.80;;;;;;5014682;28;20064;-82
2022/11/14 01:48:52;;;;;;;1.08;0.47;;;2.00;91.90;;;;;;4996787;28;20030;-82
2022/11/14 01:51:29;;;;;;;0.45;0.28;;;1.90;91.90;;;;;;5014526;28;20030;-82
2022/11/14 01:53:57;;;;;;;0.50;0.50;;;1.90;91.70;;;;;;4997727;28;20026;-79
2022/11/14 01:56:41;;;;;;;0.30;0.30;;;1.90;91.70;;;;;;5014631;28;20022;-81
2022/11/14 01:59:16;;;;;;;0.68;0.40;;;1.80;91.70;;;;;;5014216;28;20101;-80
2022/11/14 02:01:46;;;;;;;0.65;0.50;;;1.90;91.60;;;;;;5021090;28;20462;-82
2022/11/14 02:04:20;;;;;;;0.57;0.43;;;1.80;91.30;;;;;;5014070;28;20113;-81
2022/11/14 02:06:46;;;;;;;0.60;0.30;;;1.80;91.30;;;;;;5015273;28;20064;-81
2022/11/14 02:09:12;;;;;;;1.35;0.68;;;1.80;91.40;;;;;;5017580;28;20078;-80
2022/11/14 02:11:41;;;;;;;0.75;0.40;;;1.80;91.00;;;;;;5015760;28;20037;-81
2022/11/14 02:14:07;;;;;;;1.75;0.40;;;1.80;90.50;;;;;;5014706;28;20026;-80
2022/11/14 02:16:33;;;;;;;1.17;0.60;;;1.70;90.30;;;;;;5016950;28;20030;-81
2022/11/14 02:18:59;;;;;;;1.00;0.60;;;1.70;90.40;;;;;;5022768;28;20030;-79
2022/11/14 02:21:25;;;;;;;1.23;0.40;;;1.70;90.20;;;;;;5005900;28;20025;-80
2022/11/14 02:23:51;;;;;;;1.40;0.47;;;1.80;90.00;;;;;;5014478;28;20033;-81
2022/11/14 02:26:21;;;;;;;9.18;1.00;;;1.70;89.10;;;;;;5014410;28;20025;-82
2022/11/14 02:28:47;;;;;;;2.63;0.60;;;1.70;88.90;;;;;;5013994;28;20026;-82
2022/11/14 02:31:13;;;;;;;4.53;0.82;;;1.70;87.90;;;;;;5014020;28;20136;-81
2022/11/14 02:33:40;;;;;;;2.17;1.55;;;1.60;86.70;;;;;;5013941;28;20075;-81
2022/11/14 02:36:06;;;;;;;0.75;0.43;;;1.60;85.20;;;;;;4995710;28;20088;-80
2022/11/14 02:38:32;;;;;;;1.60;0.80;;;1.50;85.30;;;;;;4996148;28;20088;-84
2022/11/14 02:40:59;;;;;;;4.78;0.77;;;1.50;84.50;;;;;;5013900;28;20022;-82
2022/11/14 02:43:25;;;;;;;3.47;0.68;;;1.50;84.70;;;;;;5013908;28;20483;-81
2022/11/14 02:45:51;;;;;;;0.60;0.60;;;1.50;84.80;;;;;;5013484;28;20032;-82
2022/11/14 02:48:16;;;;;;;1.17;0.73;;;1.50;84.80;;;;;;5013764;28;20030;-83
2022/11/14 02:50:42;;;;;;;1.90;0.85;;;1.50;83.50;;;;;;5012752;28;20129;-82
2022/11/14 02:53:08;;;;;;;2.75;0.77;;;1.50;83.60;;;;;;5013745;28;20483;-81
2022/11/14 02:55:34;;;;;;;3.33;0.98;;;1.40;83.40;;;;;;5013620;28;20400;-82
2022/11/14 02:58:00;;;;;;;1.50;0.77;;;1.40;83.20;;;;;;5013566;28;20041;-81
2022/11/14 03:00:26;;;;;;;0.88;0.43;;;1.50;83.50;;;;;;5013995;28;20034;-82
2022/11/14 03:02:53;;;;;;;1.15;0.57;;;1.40;83.70;;;;;;5012120;28;20033;-83
2022/11/14 03:05:19;;;;;;;2.20;0.80;;;1.40;84.10;;;;;;5013638;28;20127;-81
2022/11/14 03:07:45;;;;;;;4.55;1.20;;;1.50;83.90;;;;;;5012529;28;20022;-82
2022/11/14 03:10:12;;;;;;;1.77;0.55;;;1.50;84.00;;;;;;5013361;28;20026;-81
2022/11/14 03:12:38;;;;;;;2.85;1.15;;;1.50;84.20;;;;;;5013209;28;20041;-82
2022/11/14 03:15:06;;;;;;;1.75;0.60;;;1.50;83.70;;;;;;5013232;28;20026;-80
2022/11/14 03:17:33;;;;;;;1.92;0.95;;;1.60;82.60;;;;;;5013188;28;20057;-81
2022/11/14 03:19:59;;;;;;;2.70;1.63;;;1.50;80.80;;;;;;5012967;28;20022;-81
2022/11/14 03:22:26;;;;;;;3.50;0.80;;;1.40;81.80;;;;;;5013025;28;20017;-81
2022/11/14 03:24:52;;;;;;;1.88;0.60;;;1.40;82.10;;;;;;5013045;28;20030;-80
2022/11/14 03:27:19;;;;;;;1.27;0.50;;;1.40;82.40;;;;;;4999469;28;20438;-81
2022/11/14 03:29:47;;;;;;;1.38;0.63;;;1.40;82.50;;;;;;4996526;28;20144;-80
2022/11/14 03:32:12;;;;;;;;;;;1.40;81.70;;;;;;5005273;28;20048;-81
2022/11/14 03:34:38;;;;;;;0.55;0.50;;;1.40;81.60;;;;;;5021834;28;19905;-82
2022/11/14 03:37:04;;;;;;;5.78;1.00;;;1.30;81.00;;;;;;5013367;28;20022;-81
2022/11/14 03:39:30;;;;;;;0.88;0.65;;;1.30;80.40;;;;;;5013040;28;20018;-81
2022/11/14 03:41:56;;;;;;;0.95;0.60;;;1.30;80.40;;;;;;5013053;28;20028;-80
2022/11/14 03:44:22;;;;;;;3.33;1.00;;;1.30;80.40;;;;;;5012885;28;20053;-81
2022/11/14 03:46:47;;;;;;;1.10;0.77;;;1.30;80.70;;;;;;5012114;28;20408;-81
2022/11/14 03:49:13;;;;;;;1.70;1.20;;;1.40;81.00;;;;;;5012737;28;20014;-80
2022/11/14 03:51:39;;;;;;;3.38;1.05;;;1.40;81.30;;;;;;5015235;28;20364;-82
2022/11/14 03:54:05;;;;;;;3.90;2.08;;;1.50;81.40;;;;;;5022416;28;20018;-80
2022/11/14 03:56:31;;;;;;;1.15;0.90;;;1.50;81.50;;;;;;5015182;28;20107;-82
2022/11/14 03:58:57;;;;;;;1.90;0.95;;;1.60;80.80;;;;;;5013900;28;20021;-81
2022/11/14 04:01:22;;;;;;;2.38;0.93;;;1.60;80.00;;;;;;5013259;28;20026;-81
2022/11/14 04:03:48;;;;;;;6.38;1.60;;;1.50;78.90;;;;;;5013345;28;20407;-80
2022/11/14 04:06:14;;;;;;;2.22;1.02;;;1.40;80.20;;;;;;5014361;28;20022;-82
2022/11/14 04:08:40;;;;;;;4.47;1.58;;;1.40;80.30;;;;;;5013353;28;20018;-82
2022/11/14 04:11:06;;;;;;;2.92;1.52;;;1.40;80.20;;;;;;5016261;28;20120;-79
2022/11/14 04:13:32;;;;;;;3.38;0.77;;;1.40;79.40;;;;;;5015530;28;20034;-82
2022/11/14 04:15:58;;;;;;;2.20;0.82;;;1.40;79.80;;;;;;5013408;28;20029;-81
2022/11/14 04:18:25;;;;;;;1.63;0.70;;;1.40;80.10;;;;;;5012370;28;20068;-82
2022/11/14 04:20:51;;;;;;;4.03;1.17;;;1.40;80.10;;;;;;5012085;28;20099;-82
2022/11/14 04:23:18;;;;;;;4.43;1.48;;;1.40;80.50;;;;;;5016032;28;20041;-81
2022/11/14 04:25:44;;;;;;;2.63;1.60;;;1.40;80.30;;;;;;5017305;28;20125;-82
2022/11/14 04:28:10;;;;;;;1.70;0.82;;;1.30;79.20;;;;;;5018455;28;20056;-82
2022/11/14 04:30:36;;;;;;;1.52;0.77;;;1.30;79.20;;;;;;5017395;28;20138;-81
2022/11/14 04:33:02;;;;;;;2.60;1.00;;;1.20;78.80;;;;;;5016910;28;20510;-83
2022/11/14 04:35:28;;;;;;;1.98;1.30;;;1.20;79.10;;;;;;5016120;28;20022;-83
2022/11/14 04:37:54;;;;;;;1.60;1.00;;;1.20;78.80;;;;;;5015437;28;20036;-82
2022/11/14 04:40:20;;;;;;;2.70;1.17;;;1.20;79.20;;;;;;5016194;28;20029;-81
2022/11/14 04:42:46;;;;;;;2.33;1.55;;;1.10;79.40;;;;;;5016208;28;20017;-79
2022/11/14 04:45:12;;;;;;;3.00;1.15;;;1.10;79.80;;;;;;4999456;28;20038;-81
2022/11/14 04:47:40;;;;;;;5.97;1.83;;;1.00;80.30;;;;;;5002252;28;20021;-81
2022/11/14 04:50:07;;;;;;;3.95;1.80;;;1.00;80.70;;;;;;4998383;28;20041;-83
2022/11/14 04:52:33;;;;;;;5.80;1.65;;;1.00;80.80;;;;;;5014687;28;20387;-83
2022/11/14 04:54:58;;;;;;;2.90;1.27;;;1.10;80.70;;;;;;5015588;28;20022;-80
2022/11/14 04:57:25;;;;;;;2.10;1.10;;;1.10;80.90;;;;;;5015683;28;20531;-82
2022/11/14 04:59:51;;;;;;;3.25;1.20;;;1.10;81.20;;;;;;5016198;28;20029;-82
2022/11/14 05:02:16;;;;;;;4.45;1.67;;;1.10;81.40;;;;;;5016174;28;20395;-83
2022/11/14 05:04:47;;;;;;;2.08;1.30;;;1.10;81.20;;;;;;5007218;28;20030;-83
2022/11/14 05:07:13;;;;;;;4.65;2.25;;;1.10;81.20;;;;;;5016818;28;20091;-82
2022/11/14 05:09:39;;;;;;;2.23;1.20;;;1.10;81.60;;;;;;5014523;28;20052;-82
2022/11/14 05:12:06;;;;;;;5.13;2.08;;;1.10;81.30;;;;;;5015373;28;20034;-82
2022/11/14 05:14:31;;;;;;;4.68;1.60;;;1.10;81.60;;;;;;5015737;28;20414;-82
2022/11/14 05:16:57;;;;;;;4.80;1.50;;;1.10;82.10;;;;;;4997955;28;20036;-81
2022/11/14 05:19:23;;;;;;;5.07;1.13;;;1.10;81.90;;;;;;5015109;28;20026;-82
2022/11/14 05:21:49;;;;;;;6.30;1.70;;;1.10;81.80;;;;;;5014569;28;20517;-81
2022/11/14 05:24:15;;;;;;;3.60;1.45;;;1.00;82.20;;;;;;5014665;28;20064;-83
2022/11/14 05:26:41;;;;;;;5.05;1.77;;;1.00;82.10;;;;;;5013723;28;20071;-81
2022/11/14 05:29:07;;;;;;;4.75;1.67;;;1.00;82.40;;;;;;5014294;28;20076;-81
2022/11/14 05:31:32;;;;;;;3.13;1.38;;;1.00;82.80;;;;;;5014953;28;20041;-82
2022/11/14 05:33:58;;;;;;;12.00;1.90;;;1.00;82.80;;;;;;5015572;28;20025;-82
2022/11/14 05:36:24;;;;;;;7.10;3.28;;;1.00;82.90;;;;;;5017817;28;20034;-81
2022/11/14 05:38:50;;;;;;;5.40;1.88;;;1.00;83.20;;;;;;5017273;28;20014;-81
2022/11/14 05:41:19;;;;;;;5.00;1.42;;;1.00;83.20;;;;;;5014282;28;20061;-81
2022/11/14 05:43:45;;;;;;;3.50;1.50;;;1.00;82.60;;;;;;5014712;28;20045;-82
2022/11/14 05:46:13;;;;;;;4.72;1.92;;;0.90;82.60;;;;;;5013882;28;20109;-82
2022/11/14 05:48:39;;;;;;;8.43;3.00;;;1.00;82.10;;;;;;5014518;28;20033;-82
2022/11/14 05:51:06;;;;;;;3.25;1.40;;;0.90;82.30;;;;;;5015224;28;20518;-82
2022/11/14 05:53:33;;;;;;;5.57;1.98;;;0.80;81.70;;;;;;5015779;28;20125;-81
2022/11/14 05:56:04;;;;;;;2.47;1.42;;;0.70;82.00;;;;;;5014570;28;20101;-81
2022/11/14 05:58:31;;;;;;;6.05;1.95;;;0.60;81.90;;;;;;5013922;28;20026;-82
2022/11/14 06:01:04;;;;;;;4.03;1.83;;;0.50;82.10;;;;;;5014708;28;20162;-81
2022/11/14 06:03:34;;;;;;;4.75;1.63;;;0.50;82.50;;;;;;5017572;28;20411;-81
2022/11/14 06:06:02;;;;;;;4.63;1.90;;;0.50;82.60;;;;;;5014032;28;20438;-82
2022/11/14 06:08:29;;;;;;;8.57;2.53;;;0.40;82.80;;;;;;5014221;28;20152;-82
2022/11/14 06:10:55;;;;;;;5.50;1.67;;;0.30;82.50;;;;;;5014425;28;20029;-83
2022/11/14 06:13:23;;;;;;;6.60;1.98;;;0.30;82.30;;;;;;5013909;28;20025;-79
2022/11/14 06:15:49;;;;;;;4.78;1.58;;;0.20;82.50;;;;;;5015339;28;20030;-82
2022/11/14 06:18:16;;;;;;;9.33;2.57;;;0.20;82.80;;;;;;5015135;28;20029;-81
2022/11/14 06:20:42;;;;;;;6.10;1.92;;;0.10;82.90;;;;;;5014251;28;20025;-81
2022/11/14 06:23:08;;;;;;;7.57;3.35;;;0.10;83.20;;;;;;5014099;28;20025;-81
2022/11/14 06:25:33;;;;;;;11.32;2.25;;;0.10;83.50;;;;;;5013911;28;20022;-80
2022/11/14 06:27:59;;;;;;;5.25;1.98;;;0.10;83.30;;;;;;5013612;28;20013;-82
2022/11/14 06:30:25;;;;;;;8.52;1.80;;;0.10;83.20;;;;;;5013055;28;20050;-82
2022/11/14 06:32:58;;;;;;;5.45;2.08;;;0.10;82.80;;;;;;5014696;28;20022;-82
2022/11/14 06:35:25;;;;;;;7.22;2.28;;;0.10;82.50;;;;;;5020454;28;20048;-82
2022/11/14 06:37:51;;;;;;;5.88;1.90;;;0.10;82.10;;;;;;5020087;28;20036;-82
2022/11/14 06:40:17;;;;;;;9.80;2.30;;;0.10;82.30;;;;;;5013839;28;20105;-82
2022/11/14 06:42:43;;;;;;;3.78;1.63;;;0.10;82.40;;;;;;5009083;28;20391;-81
2022/11/14 06:45:09;;;;;;;3.63;1.95;;;0.00;82.50;;;;;;5014329;28;20026;-83
2022/11/14 06:47:35;;;;;;;5.97;2.20;;;0.10;82.60;;;;;;5016608;28;20061;-83
2022/11/14 06:50:01;;;;;;;6.70;2.13;;;0.10;82.60;;;;;;4996355;28;20602;-82
2022/11/14 06:52:27;;;;;;;8.18;2.15;;;0.10;82.60;;;;;;5012574;28;20034;-84
2022/11/14 06:54:52;;;;;;;13.85;3.08;;;0.10;82.20;;;;;;5012070;28;20030;-83
2022/11/14 06:57:18;;;;;;;5.05;2.00;;;0.10;82.10;;;;;;5012284;28;20022;-81
2022/11/14 06:59:44;;;;;;;8.43;2.03;;;0.10;81.80;;;;;;5013897;28;20050;-82
2022/11/14 07:02:13;;;;;;;8.38;1.98;;;0.10;81.90;;;;;;5014532;28;20053;-81
2022/11/14 07:04:39;;;;;;;4.63;1.90;;;0.10;82.00;;;;;;5014850;28;20026;-83
2022/11/14 07:07:05;;;;;;;11.00;2.58;;;0.10;82.10;;;;;;5014521;28;20026;-82
2022/11/14 07:09:30;;;;;;;7.60;3.05;;;0.20;82.00;;;;;;5014732;28;20097;-83
2022/11/14 07:11:56;;;;;;;7.15;2.17;;;0.20;81.80;;;;;;4995883;28;20121;-83
2022/11/14 07:14:22;;;;;;;4.25;1.73;;;0.20;81.70;;;;;;5013656;28;20033;-82
2022/11/14 07:16:48;;;;;;;6.22;2.75;;;0.20;81.40;;;;;;5012612;28;20113;-83
2022/11/14 07:19:14;;;;;;;12.35;3.63;;;0.20;81.40;;;;;;5012528;28;20110;-82
2022/11/14 07:21:39;;;;;;;4.22;1.92;;;0.20;81.20;;;;;;5018517;28;20026;-82
2022/11/14 07:24:06;;;;;;;9.88;3.10;;;0.20;81.00;;;;;;5016718;28;20052;-83
2022/11/14 07:26:31;;;;;;;6.07;2.08;;;0.20;80.60;;;;;;5013616;28;20041;-82
2022/11/14 07:28:57;;;;;;;6.32;2.28;;;0.20;80.60;;;;;;5013116;28;20025;-83
2022/11/14 07:31:24;;;;;;;8.23;2.88;;;0.20;79.90;;;;;;5011572;28;20069;-84
2022/11/14 07:33:49;;;;;;;8.55;2.85;;;0.20;80.10;;;;;;5006646;28;20034;-83
2022/11/14 07:36:16;;;;;;;7.47;2.38;;;0.30;80.10;;;;;;4994153;28;20030;-84
2022/11/14 07:38:42;;;;;;;4.88;1.77;;;0.30;80.10;;;;;;4994310;28;20026;-83
2022/11/14 07:41:11;;;;;;;4.32;1.83;;;0.30;80.00;;;;;;4994557;28;20026;-81
2022/11/14 07:43:37;;;;;;;10.85;2.60;;;0.40;79.50;;;;;;5012324;28;20026;-82
2022/11/14 07:46:12;;;;;;;6.97;2.20;;;0.40;79.80;;;;;;5010086;28;20113;-82
2022/11/14 07:48:38;;;;;;;8.05;1.70;;;0.40;79.40;;;;;;4995657;28;20499;-83
2022/11/14 07:51:10;;;;;;;5.65;2.72;;;0.50;78.20;;;;;;5014846;28;20379;-95
2022/11/14 07:53:39;;;;;;;6.40;2.70;;;0.70;78.70;;;;;;5021830;28;20018;-93
2022/11/14 07:56:09;;;;;;;7.93;2.08;;;1.20;77.90;;;;;;5020284;28;20030;-93
2022/11/14 07:58:40;;;;;;;6.85;1.95;;;1.60;75.80;;;;;;5041395;28;20025;-90
2022/11/14 08:01:09;;;;;;;2.63;1.42;;;2.10;75.50;;;;;;5028825;28;20056;-87
2022/11/14 08:03:35;;;;;;;3.42;1.80;;;2.70;74.70;;;;;;5014958;28;20018;-89
2022/11/14 08:06:03;;;;;;;4.35;1.83;;;3.30;73.20;;;;;;5015759;28;20036;-89
2022/11/14 08:08:29;;;;;;;8.73;2.35;;;3.80;71.60;;;;;;5010992;28;20097;-88
2022/11/14 08:10:57;;;;;;;15.82;2.47;;;4.30;69.40;;;;;;5013730;28;20107;-83
2022/11/14 08:13:23;;;;;;;6.82;2.33;;;4.90;66.60;;;;;;5013488;28;20018;-90
2022/11/14 08:15:49;;;;;;;7.10;1.75;;;5.20;65.90;;;;;;5023452;28;20030;-88
2022/11/14 08:18:15;;;;;;;8.63;2.97;;;5.60;65.50;;;;;;5003450;28;20545;-89
2022/11/14 08:20:56;;;;;;;5.22;2.50;;;5.70;63.30;;;;;;4995197;28;20181;-89
2022/11/14 08:23:22;;;;;;;4.53;2.30;;;5.80;62.60;;;;;;5010977;28;20022;-91
2022/11/14 08:25:48;;;;;;;4.07;1.73;;;5.50;61.20;;;;;;5021262;28;20029;-91
2022/11/14 08:28:14;;;;;;;10.93;2.47;;;5.20;62.30;;;;;;5021327;28;20022;-89
2022/11/14 08:30:40;;;;;;;5.22;2.15;;;5.00;62.70;;;;;;5017268;28;20048;-90
2022/11/14 08:33:06;;;;;;;7.95;2.05;;;4.80;61.80;;;;;;5016977;28;20053;-89
2022/11/14 08:35:33;;;;;;;8.30;2.63;;;4.60;62.80;;;;;;5016390;28;20033;-88
2022/11/14 08:38:01;;;;;;;6.93;2.05;;;4.40;63.10;;;;;;5007308;28;20429;-91
2022/11/14 08:40:27;;;;;;;6.53;2.00;;;4.30;63.50;;;;;;5015674;28;20113;-86
2022/11/14 08:42:59;;;;;;;6.45;1.98;;;4.40;64.30;;;;;;5014941;28;20029;-89
2022/11/14 08:45:25;;;;;;;9.45;2.60;;;4.50;63.90;;;;;;5013981;28;20033;-88
2022/11/14 08:47:54;;;;;;;6.10;2.30;;;4.70;63.20;;;;;;5013409;28;20026;-88
2022/11/14 08:50:20;;;;;;;16.42;3.50;;;4.90;62.40;;;;;;5013545;28;20034;-87
2022/11/14 08:52:50;;;;;;;4.60;1.90;;;5.20;62.80;;;;;;5013720;28;20029;-86
2022/11/14 08:55:17;;;;;;;7.57;2.30;;;5.70;60.70;;;;;;5013169;28;20037;-85
2022/11/14 08:57:43;;;;;;;8.93;2.95;;;5.80;59.70;;;;;;5014412;28;20018;-85
2022/11/14 09:00:13;;;;;;;6.72;1.85;;;5.70;60.50;;;;;;5016109;28;20022;-84
2022/11/14 09:02:40;;;;;;;6.68;2.67;;;5.80;60.50;;;;;;5018398;28;20026;-85
2022/11/14 09:05:06;;;;;;;8.03;2.87;;;6.00;59.30;;;;;;5020186;28;20010;-88
2022/11/14 09:07:32;;;;;;;8.15;2.40;;;6.00;59.60;;;;;;5027589;28;20264;-87
2022/11/14 09:09:57;;;;;;;3.53;1.83;;;6.10;59.60;;;;;;5015936;28;20054;-86
2022/11/14 09:12:23;;;;;;;8.18;1.73;;;6.30;59.40;;;;;;5019911;28;20022;-85
2022/11/14 09:14:49;;;;;;;5.78;1.85;;;6.20;58.00;;;;;;5019884;28;20033;-86
2022/11/14 09:17:15;;;;;;;6.00;1.90;;;6.00;58.40;;;;;;5016957;28;20033;-85
2022/11/14 09:19:41;;;;;;;16.67;2.60;;;5.70;58.60;;;;;;5018763;28;20347;-88
2022/11/14 09:22:07;;;;;;;2.15;1.65;;;5.30;58.90;;;;;;5014886;28;20104;-85
2022/11/14 09:24:33;;;;;;;8.10;2.55;;;5.00;59.80;;;;;;5013377;28;20034;-91
2022/11/14 09:26:59;;;;;;;6.80;2.00;;;4.60;60.70;;;;;;5021591;28;20375;-90
2022/11/14 09:29:26;;;;;;;11.25;2.97;;;4.30;61.80;;;;;;5032516;28;20045;-92
2022/11/14 09:31:53;;;;;;;5.80;2.50;;;4.00;62.60;;;;;;5028890;28;20064;-92
2022/11/14 09:34:19;;;;;;;7.93;3.20;;;3.60;64.00;;;;;;5025514;28;20026;-88
2022/11/14 09:36:50;;;;;;;5.65;2.45;;;3.30;64.70;;;;;;5027956;28;20029;-91
2022/11/14 09:39:18;;;;;;;6.03;2.20;;;3.20;65.40;;;;;;5012007;28;20030;-92
2022/11/14 09:42:14;;;;;;;8.68;2.90;;;3.00;66.30;;;;;;5028674;28;20026;-90
2022/11/14 09:45:11;;;;;;;6.07;2.35;;;3.50;67.50;;;;;;5022841;28;20109;-91
2022/11/14 09:47:56;;;;;;;5.82;2.40;;;4.30;66.10;;;;;;5006078;28;20500;-91
2022/11/14 09:50:33;;;;;;;4.07;1.83;;;5.00;63.90;;;;;;4992026;28;20042;-91
2022/11/14 09:53:27;;;;;;;5.20;1.98;;;5.70;62.10;;;;;;4964362;29;20015;-93
2022/11/14 09:55:53;;;;;;;6.05;1.73;;;6.20;61.20;;;;;;4976426;28;20068;-94
2022/11/14 09:58:20;;;;;;;5.70;2.08;;;7.00;60.20;;;;;;4975814;29;20031;-90
2022/11/14 10:01:26;;;;;;;4.65;2.55;;;7.70;57.90;;;;;;4950375;29;20059;-90
2022/11/14 10:04:13;;;;;;;7.47;2.50;;;8.30;55.90;;;;;;4978920;28;20034;-92
2022/11/14 10:07:27;;;;;;;6.72;2.47;;;8.30;55.00;;;;;;4982271;28;20023;-90
2022/11/14 10:10:28;;;;;;;4.75;1.77;;;7.70;53.90;;;;;;4960437;28;20238;-92
2022/11/14 10:13:15;;;;;;;5.75;3.00;;;6.30;55.50;;;;;;4932858;28;20390;-94
2022/11/14 10:16:02;;;;;;;7.25;2.38;;;5.30;58.50;;;;;;4985953;28;20107;-91
2022/11/14 10:18:41;;;;;;;;;;;4.60;60.00;;;;;;5000956;28;20029;-92
2022/11/14 10:21:41;;;;;;;8.35;2.95;;;4.10;61.00;;;;;;5021647;28;19906;-91
2022/11/14 10:24:53;;;;;;;7.07;3.33;;;3.70;63.20;;;;;;4929936;29;20584;-92
2022/11/14 10:27:52;;;;;;;6.45;2.30;;;3.20;65.00;;;;;;4932513;29;20068;-95
2022/11/14 10:30:21;;;;;;;7.38;2.22;;;3.00;66.70;;;;;;4924747;29;20040;-92
2022/11/14 10:33:08;;;;;;;4.65;1.77;;;2.70;67.10;;;;;;4952294;29;20225;-90
2022/11/14 10:35:40;;;;;;;5.90;2.45;;;2.60;67.60;;;;;;4950141;29;20032;-90
2022/11/14 10:38:06;;;;;;;5.82;2.20;;;2.50;68.30;;;;;;4931471;29;20059;-91
2022/11/14 10:40:46;;;;;;;4.10;1.30;;;2.40;68.60;;;;;;4925133;29;20032;-93
2022/11/14 10:43:27;;;;;;;7.38;2.10;;;2.30;69.00;;;;;;4920264;29;20028;-85
2022/11/14 10:46:23;;;;;;;4.70;2.10;;;2.20;69.00;;;;;;4917157;29;20048;-86
2022/11/14 10:48:50;;;;;;;7.47;2.53;;;2.10;69.10;;;;;;4915961;29;20059;-82
2022/11/14 10:51:36;;;;;;;3.45;2.00;;;2.10;69.40;;;;;;4928147;29;20087;-84
2022/11/14 10:54:05;;;;;;;5.35;2.42;;;2.00;69.90;;;;;;4931348;29;20040;-83
2022/11/14 10:56:32;;;;;;;8.35;2.60;;;2.00;70.20;;;;;;4914988;29;20111;-85
2022/11/14 10:58:58;;;;;;;3.70;1.98;;;2.00;70.50;;;;;;4915447;29;20393;-84
2022/11/14 11:01:49;;;;;;;6.35;2.30;;;2.00;70.50;;;;;;4972838;28;20034;-84
2022/11/14 11:04:38;;;;;;;8.35;2.53;;;2.00;70.60;;;;;;5013885;28;20052;-84
2022/11/14 11:07:07;;;;;;;5.88;2.20;;;2.00;71.20;;;;;;5013223;28;20049;-83
2022/11/14 11:12:54;;;;;;;6.43;2.35;;;2.00;71.90;;;;;;5010768;28;20065;-85
2022/11/14 11:15:24;;;;;;;5.63;2.03;;;2.00;71.90;;;;;;5016769;28;20029;-88
2022/11/14 11:18:28;;;;;;;6.38;2.83;;;1.90;72.00;;;;;;5016368;28;20113;-85
2022/11/14 11:21:41;;;;;;;8.10;2.67;;;1.90;72.50;;;;;;5014353;28;20384;-90
2022/11/14 11:24:08;;;;;;;8.82;2.35;;;1.90;72.80;;;;;;5016851;28;20030;-86
2022/11/14 11:26:34;;;;;;;5.65;2.45;;;1.90;72.90;;;;;;5020539;28;20026;-83
2022/11/14 11:29:12;;;;;;;4.25;2.15;;;1.90;72.90;;;;;;5001805;28;20514;-86
2022/11/14 11:31:52;;;;;;;6.55;2.85;;;1.90;72.90;;;;;;5012081;28;20048;-87
2022/11/14 11:34:38;;;;;;;8.43;2.45;;;1.80;73.00;;;;;;5013398;28;20507;-86
2022/11/14 11:37:10;;;;;;;10.20;2.67;;;1.80;73.30;;;;;;5025978;28;20034;-86
2022/11/14 11:39:42;;;;;;;9.30;2.20;;;1.80;73.70;;;;;;5003975;28;20089;-87
2022/11/14 11:42:15;;;;;;;7.78;2.53;;;1.80;73.60;;;;;;5014676;28;20153;-83
2022/11/14 11:44:47;;;;;;;4.13;2.10;;;1.80;73.70;;;;;;5012489;28;20176;-84
2022/11/14 11:47:17;;;;;;;6.47;2.40;;;1.80;73.50;;;;;;5014569;28;20021;-84
2022/11/14 11:49:51;;;;;;;8.10;2.42;;;1.80;73.20;;;;;;5018954;28;20052;-82
2022/11/14 11:53:38;;;;;;;;;;;;;;;;;;;;;
2022/11/14 11:56:52;;;;;;;7.45;2.13;;;1.90;72.40;;;;;;4953117;28;20537;-85
2022/11/14 12:00:12;;;;;;;10.13;2.00;;;1.80;72.20;;;;;;4951054;29;20042;-84
2022/11/14 12:02:44;;;;;;;4.95;2.05;;;1.80;72.30;;;;;;4958604;28;20034;-85
2022/11/14 12:05:24;;;;;;;5.50;1.63;;;1.80;71.70;;;;;;5015211;28;20526;-84
2022/11/14 12:08:16;;;;;;;5.05;2.00;;;1.70;71.80;;;;;;5014240;28;20404;-84
2022/11/14 12:10:44;;;;;;;8.10;2.13;;;1.80;71.80;;;;;;5003352;28;20033;-87
2022/11/14 12:13:22;;;;;;;6.03;1.75;;;1.70;71.90;;;;;;4999746;28;20028;-86
2022/11/14 12:16:08;;;;;;;5.72;2.10;;;1.70;72.10;;;;;;5012812;28;20120;-83
2022/11/14 12:18:59;;;;;;;3.38;1.67;;;1.80;72.10;;;;;;4995077;28;20025;-83
2022/11/14 12:21:51;;;;;;;9.35;1.92;;;1.70;72.50;;;;;;5012729;28;20021;-84
2022/11/14 12:24:55;;;;;;;3.90;1.83;;;1.70;72.00;;;;;;5007984;28;20026;-84
2022/11/14 12:27:39;;;;;;;8.55;2.53;;;1.70;71.30;;;;;;5005298;28;20018;-85
2022/11/14 12:30:17;;;;;;;5.07;1.67;;;1.70;71.60;;;;;;5013378;28;20069;-83
2022/11/14 12:32:45;;;;;;;;;;;1.70;71.60;;;;;;5020799;28;20028;-84
2022/11/14 12:35:23;;;;;;;5.95;1.88;;;1.60;71.70;;;;;;5015170;28;19897;-85
2022/11/14 12:37:51;;;;;;;5.60;2.17;;;1.60;72.20;;;;;;5020385;28;20025;-84
2022/11/14 12:40:39;;;;;;;3.72;1.55;;;1.60;72.30;;;;;;5014721;28;20036;-84
2022/11/14 12:43:23;;;;;;;3.47;1.45;;;1.70;72.20;;;;;;5024409;28;20049;-89
2022/11/14 12:45:52;;;;;;;3.45;1.30;;;1.70;71.80;;;;;;4999916;28;20034;-87
2022/11/14 12:48:25;;;;;;;3.05;1.23;;;1.60;71.70;;;;;;5015576;28;20121;-89
2022/11/14 12:50:56;;;;;;;2.67;1.70;;;1.60;71.80;;;;;;5002150;28;20065;-89
2022/11/14 12:53:37;;;;;;;7.47;1.52;;;1.60;71.90;;;;;;5007268;28;20026;-88
2022/11/14 12:56:21;;;;;;;5.72;1.80;;;1.60;72.00;;;;;;5008509;28;20040;-90
2022/11/14 12:59:12;;;;;;;2.65;1.40;;;1.60;72.10;;;;;;5011688;28;20084;-86
2022/11/14 13:02:12;;;;;;;4.18;1.40;;;1.60;72.30;;;;;;5029130;28;20029;-88
2022/11/14 13:04:56;;;;;;;6.13;1.13;;;1.50;72.30;;;;;;5000905;28;20112;-89
2022/11/14 13:07:37;;;;;;;6.18;1.60;;;1.50;72.30;;;;;;5006273;28;20022;-90
2022/11/14 13:10:13;;;;;;;4.35;1.70;;;1.50;72.50;;;;;;5015670;28;20093;-87
2022/11/14 13:24:07;;;;;;;3.60;2.15;;;1.40;73.10;;;;;;5016051;28;20282;-86
2022/11/14 13:26:33;;;;;;;8.13;1.90;;;1.30;73.40;;;;;;5014378;28;20017;-90
2022/11/14 13:29:02;;;;;;;4.20;2.05;;;1.30;73.80;;;;;;5000084;28;20022;-88
2022/11/14 13:31:46;;;;;;;9.20;2.35;;;1.30;73.90;;;;;;4996337;28;20042;-86